createdAt,value
2018-05-10T00:01:07.920Z,57.24
2018-05-10T00:03:36.158Z,57.32
2018-05-10T00:06:04.397Z,57.37
2018-05-10T00:08:33.390Z,57.62
2018-05-10T00:11:02.402Z,57.84
2018-05-10T00:13:30.642Z,57.96
2018-05-10T00:15:58.865Z,57.64
2018-05-10T00:18:27.109Z,58.03
2018-05-10T00:20:56.105Z,58.03
2018-05-10T00:23:25.122Z,58.06
2018-05-10T00:25:53.386Z,57.72
2018-05-10T00:28:22.383Z,57.31
2018-05-10T00:30:50.633Z,57.20
2018-05-10T00:33:18.872Z,56.93
2018-05-10T00:35:47.133Z,56.87
2018-05-10T00:38:15.362Z,57.12
2018-05-10T00:40:43.688Z,57.27
2018-05-10T00:43:11.930Z,57.39
2018-05-10T00:45:40.929Z,57.67
2018-05-10T00:48:09.182Z,57.68
2018-05-10T00:50:37.415Z,57.77
2018-05-10T00:53:05.671Z,57.95
2018-05-10T00:55:33.902Z,58.13
2018-05-10T00:58:02.138Z,58.26
2018-05-10T01:00:30.374Z,58.29
2018-05-10T01:02:59.388Z,58.32
2018-05-10T01:05:27.621Z,58.45
2018-05-10T01:07:57.378Z,58.75
2018-05-10T01:10:25.605Z,58.68
2018-05-10T01:12:53.849Z,58.32
2018-05-10T01:15:22.082Z,58.52
2018-05-10T01:17:51.103Z,58.78
2018-05-10T01:20:19.364Z,58.99
2018-05-10T01:22:47.597Z,59.03
2018-05-10T01:25:15.833Z,58.67
2018-05-10T01:27:44.069Z,58.41
2018-05-10T01:30:13.074Z,59.04
2018-05-10T01:32:42.078Z,58.85
2018-05-10T01:35:27.898Z,59.08
2018-05-10T01:37:56.150Z,59.09
2018-05-10T01:40:24.382Z,58.86
2018-05-10T01:42:52.613Z,58.62
2018-05-10T01:45:21.058Z,58.42
2018-05-10T01:47:50.065Z,58.49
2018-05-10T01:50:18.298Z,58.76
2018-05-10T01:52:47.387Z,58.56
2018-05-10T01:55:15.624Z,58.45
2018-05-10T01:57:43.858Z,58.90
2018-05-10T02:00:12.866Z,58.59
2018-05-10T02:02:41.133Z,58.54
2018-05-10T02:05:10.131Z,58.45
2018-05-10T02:07:39.141Z,58.73
2018-05-10T02:10:07.377Z,58.97
2018-05-10T02:12:35.608Z,59.66
2018-05-10T02:15:03.853Z,59.58
2018-05-10T02:17:32.093Z,59.71
2018-05-10T02:20:00.325Z,60.14
2018-05-10T02:22:28.574Z,60.33
2018-05-10T02:24:57.589Z,60.76
2018-05-10T02:27:25.818Z,60.49
2018-05-10T02:29:54.078Z,60.03
2018-05-10T02:32:22.316Z,60.37
2018-05-10T02:34:51.627Z,60.54
2018-05-10T02:37:19.846Z,60.11
2018-05-10T02:39:48.079Z,59.88
2018-05-10T02:42:16.318Z,59.72
2018-05-10T02:44:45.322Z,59.68
2018-05-10T02:47:13.578Z,60.57
2018-05-10T02:49:41.907Z,60.78
2018-05-10T02:52:10.046Z,60.90
2018-05-10T02:54:39.051Z,61.00
2018-05-10T02:57:07.285Z,60.97
2018-05-10T02:59:35.530Z,60.94
2018-05-10T03:02:03.776Z,60.84
2018-05-10T03:04:32.022Z,60.84
2018-05-10T03:07:01.032Z,60.98
2018-05-10T03:09:30.033Z,60.70
2018-05-10T03:11:59.031Z,60.73
2018-05-10T03:14:27.262Z,60.93
2018-05-10T03:16:55.509Z,60.96
2018-05-10T03:19:23.742Z,60.56
2018-05-10T03:21:52.750Z,60.82
2018-05-10T03:24:20.985Z,60.88
2018-05-10T03:26:49.290Z,60.81
2018-05-10T03:29:18.303Z,60.91
2018-05-10T03:31:46.538Z,60.62
2018-05-10T03:34:14.778Z,60.75
2018-05-10T03:36:43.010Z,61.05
2018-05-10T03:39:11.281Z,60.66
2018-05-10T03:41:40.355Z,60.74
2018-05-10T03:44:08.550Z,61.02
2018-05-10T03:46:37.550Z,61.49
2018-05-10T03:49:05.781Z,61.37
2018-05-10T03:51:34.297Z,61.62
2018-05-10T03:54:03.294Z,61.95
2018-05-10T03:56:32.293Z,61.64
2018-05-10T03:59:00.538Z,61.78
2018-05-10T04:01:28.772Z,61.50
2018-05-10T04:07:26.240Z,60.95
2018-05-10T04:10:12.339Z,60.64
2018-05-10T04:12:40.589Z,60.57
2018-05-10T04:15:08.837Z,60.68
2018-05-10T04:17:37.077Z,60.63
2018-05-10T04:20:05.309Z,60.16
2018-05-10T04:22:34.322Z,60.29
2018-05-10T04:25:02.569Z,60.69
2018-05-10T04:27:31.578Z,60.56
2018-05-10T04:30:00.603Z,60.61
2018-05-10T04:32:28.841Z,60.93
2018-05-10T04:34:57.842Z,60.61
2018-05-10T04:37:26.858Z,60.95
2018-05-10T04:39:55.081Z,60.65
2018-05-10T04:42:23.313Z,60.71
2018-05-10T04:44:51.557Z,60.62
2018-05-10T04:47:20.553Z,60.55
2018-05-10T04:49:49.566Z,60.60
2018-05-10T04:52:17.822Z,60.70
2018-05-10T04:54:46.836Z,60.90
2018-05-10T04:57:15.066Z,60.51
2018-05-10T04:59:43.367Z,60.66
2018-05-10T05:02:12.361Z,60.46
2018-05-10T05:04:40.594Z,60.26
2018-05-10T05:07:08.845Z,60.42
2018-05-10T05:09:37.077Z,59.96
2018-05-10T05:12:06.093Z,59.62
2018-05-10T05:14:34.326Z,59.63
2018-05-10T05:17:03.368Z,59.24
2018-05-10T05:19:31.608Z,58.83
2018-05-10T05:22:00.610Z,58.43
2018-05-10T05:24:30.014Z,57.83
2018-05-10T05:26:59.077Z,57.53
2018-05-10T05:29:27.253Z,57.35
2018-05-10T05:31:55.505Z,56.98
2018-05-10T05:34:23.739Z,56.40
2018-05-10T05:36:52.825Z,56.33
2018-05-10T05:39:21.830Z,55.72
2018-05-10T05:41:50.069Z,55.74
2018-05-10T05:44:18.322Z,56.86
2018-05-10T05:46:46.898Z,57.11
2018-05-10T05:49:15.853Z,56.94
2018-05-10T05:51:44.854Z,56.37
2018-05-10T05:54:13.104Z,56.40
2018-05-10T05:56:42.110Z,56.20
2018-05-10T05:59:11.117Z,56.17
2018-05-10T06:01:39.350Z,56.34
2018-05-10T06:04:07.598Z,56.01
2018-05-10T06:06:35.829Z,56.25
2018-05-10T06:09:07.900Z,56.35
2018-05-10T06:11:36.894Z,55.99
2018-05-10T06:14:05.126Z,55.99
2018-05-10T06:16:33.370Z,56.03
2018-05-10T06:19:01.618Z,56.03
2018-05-10T06:21:30.635Z,56.05
2018-05-10T06:23:58.881Z,55.05
2018-05-10T06:26:27.895Z,55.34
2018-05-10T06:28:56.127Z,55.15
2018-05-10T06:31:24.430Z,55.05
2018-05-10T06:33:53.447Z,54.75
2018-05-10T06:36:22.426Z,54.48
2018-05-10T06:38:50.674Z,54.71
2018-05-10T06:41:18.902Z,53.72
2018-05-10T06:43:47.444Z,53.66
2018-05-10T06:46:16.444Z,53.71
2018-05-10T06:48:45.446Z,53.18
2018-05-10T06:51:13.694Z,52.83
2018-05-10T06:53:42.706Z,53.08
2018-05-10T06:56:11.702Z,52.24
2018-05-10T06:58:39.952Z,51.40
2018-05-10T07:01:08.250Z,51.48
2018-05-10T07:03:37.262Z,51.61
2018-05-10T07:06:05.510Z,51.56
2018-05-10T07:08:34.532Z,51.30
2018-05-10T07:11:02.771Z,51.34
2018-05-10T07:13:31.018Z,51.05
2018-05-10T07:15:59.258Z,50.73
2018-05-10T07:18:27.501Z,50.20
2018-05-10T07:20:56.498Z,50.31
2018-05-10T07:23:25.525Z,49.17
2018-05-10T07:25:53.761Z,49.30
2018-05-10T07:28:22.783Z,48.77
2018-05-10T07:30:51.968Z,48.01
2018-05-10T07:33:21.062Z,47.96
2018-05-10T07:35:49.298Z,46.46
2018-05-10T07:38:17.541Z,45.87
2018-05-10T07:40:45.819Z,45.09
2018-05-10T07:43:14.009Z,45.10
2018-05-10T07:45:42.256Z,45.58
2018-05-10T07:48:10.817Z,46.71
2018-05-10T07:50:39.817Z,46.94
2018-05-10T07:53:08.128Z,46.64
2018-05-10T07:55:36.293Z,46.90
2018-05-10T07:58:04.528Z,47.32
2018-05-10T08:00:33.729Z,46.42
2018-05-10T08:03:02.729Z,46.78
2018-05-10T08:05:31.733Z,46.63
2018-05-10T08:07:59.977Z,46.47
2018-05-10T08:10:28.432Z,46.21
2018-05-10T08:12:56.675Z,46.61
2018-05-10T08:15:24.917Z,46.61
2018-05-10T08:17:53.997Z,45.20
2018-05-10T08:20:22.214Z,44.42
2018-05-10T08:22:50.453Z,44.91
2018-05-10T08:25:18.698Z,45.29
2018-05-10T08:27:46.933Z,45.70
2018-05-10T08:30:15.189Z,45.81
2018-05-10T08:32:43.425Z,45.70
2018-05-10T08:35:11.857Z,47.39
2018-05-10T08:37:40.853Z,47.90
2018-05-10T08:40:09.083Z,48.18
2018-05-10T08:42:37.352Z,48.82
2018-05-10T08:45:05.603Z,49.31
2018-05-10T08:47:33.834Z,49.35
2018-05-10T08:50:02.841Z,49.04
2018-05-10T08:52:31.937Z,48.82
2018-05-10T08:55:00.937Z,47.32
2018-05-10T08:57:29.186Z,46.50
2018-05-10T08:59:57.501Z,46.25
2018-05-10T09:02:25.664Z,46.05
2018-05-10T09:04:54.662Z,45.37
2018-05-10T09:07:22.954Z,46.16
2018-05-10T09:09:51.921Z,43.72
2018-05-10T09:12:20.173Z,44.69
2018-05-10T09:14:48.422Z,43.58
2018-05-10T09:17:16.661Z,42.82
2018-05-10T09:19:44.895Z,42.16
2018-05-10T09:22:13.121Z,41.46
2018-05-10T09:24:41.363Z,42.71
2018-05-10T09:27:10.370Z,42.83
2018-05-10T09:29:39.374Z,41.07
2018-05-10T09:32:07.613Z,41.41
2018-05-10T09:34:36.617Z,40.91
2018-05-10T09:37:05.610Z,40.58
2018-05-10T09:39:34.762Z,40.84
2018-05-10T09:42:02.954Z,41.03
2018-05-10T09:44:31.194Z,40.63
2018-05-10T09:46:59.638Z,39.95
2018-05-10T09:49:28.664Z,40.26
2018-05-10T09:51:56.894Z,39.21
2018-05-10T09:54:25.148Z,39.35
2018-05-10T09:56:53.437Z,39.09
2018-05-10T09:59:21.685Z,38.70
2018-05-10T10:01:49.913Z,37.31
2018-05-10T10:04:18.925Z,37.49
2018-05-10T10:06:47.158Z,37.18
2018-05-10T10:09:15.408Z,37.06
2018-05-10T10:11:43.716Z,37.74
2018-05-10T10:14:11.879Z,37.51
2018-05-10T10:16:40.126Z,38.05
2018-05-10T10:19:08.364Z,37.21
2018-05-10T10:21:37.389Z,37.05
2018-05-10T10:24:05.629Z,38.38
2018-05-10T10:26:34.630Z,36.97
2018-05-10T10:29:02.878Z,37.46
2018-05-10T10:31:31.106Z,37.82
2018-05-10T10:33:59.373Z,38.41
2018-05-10T10:36:27.602Z,38.38
2018-05-10T10:38:55.846Z,37.74
2018-05-10T10:41:24.104Z,36.63
2018-05-10T10:43:52.346Z,36.76
2018-05-10T10:46:21.350Z,36.98
2018-05-10T10:48:50.366Z,36.45
2018-05-10T10:51:18.612Z,36.54
2018-05-10T10:53:47.656Z,38.21
2018-05-10T10:56:16.905Z,38.18
2018-05-10T10:58:45.911Z,38.88
2018-05-10T11:01:14.147Z,39.06
2018-05-10T11:03:42.394Z,38.33
2018-05-10T11:06:10.645Z,38.15
2018-05-10T11:08:38.890Z,38.88
2018-05-10T11:11:07.919Z,38.63
2018-05-10T11:13:36.149Z,38.54
2018-05-10T11:16:04.373Z,38.50
2018-05-10T11:18:32.619Z,39.33
2018-05-10T11:21:01.625Z,38.98
2018-05-10T11:23:29.878Z,37.37
2018-05-10T11:25:59.190Z,37.76
2018-05-10T11:28:27.421Z,37.58
2018-05-10T11:30:55.658Z,35.71
2018-05-10T11:33:24.118Z,33.70
2018-05-10T11:35:53.114Z,35.16
2018-05-10T11:38:21.357Z,36.89
2018-05-10T11:40:49.591Z,38.41
2018-05-10T11:43:17.838Z,38.69
2018-05-10T11:45:46.852Z,38.23
2018-05-10T11:48:15.097Z,36.97
2018-05-10T11:50:44.094Z,39.06
2018-05-10T11:53:13.101Z,39.82
2018-05-10T11:55:41.336Z,40.84
2018-05-10T11:58:10.350Z,40.21
2018-05-10T12:00:39.347Z,40.25
2018-05-10T12:03:08.349Z,40.70
2018-05-10T12:05:36.603Z,41.27
2018-05-10T12:08:04.834Z,41.42
2018-05-10T12:10:33.090Z,41.48
2018-05-10T12:13:01.330Z,41.09
2018-05-10T12:15:29.562Z,40.39
2018-05-10T12:17:57.928Z,39.74
2018-05-10T12:20:26.172Z,39.14
2018-05-10T12:25:29.751Z,41.97
2018-05-10T12:27:57.962Z,41.56
2018-05-10T12:30:27.038Z,42.85
2018-05-10T12:32:55.222Z,42.47
2018-05-10T12:35:24.253Z,41.70
2018-05-10T12:37:52.477Z,41.73
2018-05-10T12:40:20.721Z,41.73
2018-05-10T12:42:48.950Z,39.76
2018-05-10T12:45:17.949Z,40.08
2018-05-10T12:47:47.046Z,38.82
2018-05-10T12:50:16.050Z,39.25
2018-05-10T12:52:44.418Z,40.09
2018-05-10T12:55:13.414Z,39.92
2018-05-10T12:57:41.646Z,40.37
2018-05-10T13:00:09.895Z,41.35
2018-05-10T13:02:38.138Z,41.72
2018-05-10T13:05:07.158Z,41.91
2018-05-10T13:07:35.401Z,42.06
2018-05-10T13:10:04.426Z,41.60
2018-05-10T13:12:32.666Z,40.71
2018-05-10T13:15:01.671Z,41.10
2018-05-10T13:17:29.908Z,40.68
2018-05-10T13:19:58.149Z,41.08
2018-05-10T13:22:26.394Z,40.04
2018-05-10T13:24:55.419Z,39.84
2018-05-10T13:27:23.749Z,39.62
2018-05-10T13:29:52.851Z,39.11
2018-05-10T13:32:21.857Z,38.18
2018-05-10T13:34:50.132Z,38.03
2018-05-10T13:37:18.388Z,37.40
2018-05-10T13:39:47.619Z,37.48
2018-05-10T13:42:15.849Z,37.97
2018-05-10T13:44:44.102Z,38.50
2018-05-10T13:47:12.426Z,36.77
2018-05-10T13:49:40.602Z,37.18
2018-05-10T13:52:09.602Z,38.74
2018-05-10T13:54:37.846Z,39.19
2018-05-10T13:57:06.478Z,38.34
2018-05-10T13:59:34.697Z,38.91
2018-05-10T14:02:02.938Z,39.04
2018-05-10T14:04:31.274Z,39.16
2018-05-10T14:06:59.418Z,38.73
2018-05-10T14:09:27.646Z,37.56
2018-05-10T14:11:55.889Z,37.95
2018-05-10T14:14:24.893Z,38.91
2018-05-10T14:16:53.903Z,38.59
2018-05-10T14:19:22.190Z,38.59
2018-05-10T14:21:50.446Z,38.54
2018-05-10T14:24:19.542Z,38.73
2018-05-10T14:26:47.779Z,40.26
2018-05-10T14:29:16.028Z,41.15
2018-05-10T14:31:44.277Z,40.89
2018-05-10T14:34:12.530Z,41.49
2018-05-10T14:36:41.530Z,40.93
2018-05-10T14:39:10.546Z,41.63
2018-05-10T14:41:38.790Z,41.27
2018-05-10T14:44:07.803Z,41.06
2018-05-10T14:46:36.037Z,41.55
2018-05-10T14:49:05.054Z,41.27
2018-05-10T14:51:34.057Z,41.16
2018-05-10T14:54:03.153Z,41.60
2018-05-10T14:56:31.290Z,42.16
2018-05-10T14:58:59.539Z,41.50
2018-05-10T15:01:27.785Z,40.64
2018-05-10T15:03:56.040Z,40.75
2018-05-10T15:06:24.274Z,41.05
2018-05-10T15:08:52.636Z,41.17
2018-05-10T15:11:20.866Z,41.89
2018-05-10T15:13:50.178Z,42.05
2018-05-10T15:16:19.186Z,42.02
2018-05-10T15:18:48.173Z,42.14
2018-05-10T15:21:16.450Z,42.34
2018-05-10T15:23:44.706Z,42.66
2018-05-10T15:26:13.705Z,42.66
2018-05-10T15:28:42.711Z,42.52
2018-05-10T15:31:10.955Z,43.05
2018-05-10T15:33:39.185Z,43.17
2018-05-10T15:36:07.433Z,42.93
2018-05-10T15:38:35.898Z,43.02
2018-05-10T15:41:04.906Z,43.13
2018-05-10T15:43:33.957Z,43.25
2018-05-10T15:46:02.197Z,43.08
2018-05-10T15:48:30.429Z,43.16
2018-05-10T15:50:58.665Z,43.50
2018-05-10T15:53:26.933Z,43.72
2018-05-10T15:55:55.158Z,43.63
2018-05-10T15:58:25.209Z,44.23
2018-05-10T16:00:53.439Z,44.23
2018-05-10T16:03:21.667Z,44.67
2018-05-10T16:05:49.910Z,44.79
2018-05-10T16:08:18.905Z,45.04
2018-05-10T16:10:47.924Z,45.12
2018-05-10T16:13:16.153Z,44.85
2018-05-10T16:15:44.413Z,45.05
2018-05-10T16:18:12.653Z,44.51
2018-05-10T16:20:40.882Z,44.98
2018-05-10T16:23:09.126Z,44.14
2018-05-10T16:25:37.397Z,44.53
2018-05-10T16:28:05.646Z,44.37
2018-05-10T16:30:33.898Z,44.52
2018-05-10T16:33:02.897Z,44.45
2018-05-10T16:35:31.910Z,45.24
2018-05-10T16:38:00.144Z,45.64
2018-05-10T16:40:29.157Z,46.34
2018-05-10T16:42:58.170Z,46.34
2018-05-10T16:45:26.416Z,46.02
2018-05-10T16:47:54.666Z,46.55
2018-05-10T16:50:22.920Z,46.95
2018-05-10T16:52:51.155Z,47.32
2018-05-10T16:55:20.178Z,47.50
2018-05-10T16:57:48.456Z,47.51
2018-05-10T17:00:16.693Z,47.75
2018-05-10T17:02:46.734Z,47.83
2018-05-10T17:05:14.970Z,48.08
2018-05-10T17:07:43.202Z,48.58
2018-05-10T17:10:11.750Z,48.89
2018-05-10T17:12:40.745Z,49.22
2018-05-10T17:15:09.746Z,49.25
2018-05-10T17:17:37.987Z,49.39
2018-05-10T17:20:06.234Z,49.63
2018-05-10T17:22:34.870Z,49.72
2018-05-10T17:25:03.870Z,50.00
2018-05-10T17:27:32.888Z,49.99
2018-05-10T17:30:01.127Z,50.32
2018-05-10T17:32:30.169Z,50.79
2018-05-10T17:34:58.422Z,51.38
2018-05-10T17:37:26.655Z,51.97
2018-05-10T17:39:54.906Z,52.38
2018-05-10T17:42:23.161Z,52.90
2018-05-10T17:44:51.389Z,52.74
2018-05-10T17:47:19.632Z,53.31
2018-05-10T17:49:47.869Z,53.35
2018-05-10T17:52:16.102Z,53.48
2018-05-10T17:54:44.338Z,54.07
2018-05-10T17:57:12.579Z,53.96
2018-05-10T17:59:41.579Z,53.81
2018-05-10T18:02:10.591Z,54.63
2018-05-10T18:04:38.851Z,54.92
2018-05-10T18:07:07.844Z,55.26
2018-05-10T18:09:36.100Z,55.08
2018-05-10T18:12:04.335Z,55.26
2018-05-10T18:14:32.580Z,55.29
2018-05-10T18:17:00.814Z,55.30
2018-05-10T18:19:29.046Z,55.25
2018-05-10T18:21:57.318Z,55.67
2018-05-10T18:24:25.573Z,55.95
2018-05-10T18:26:54.587Z,56.40
2018-05-10T18:29:22.825Z,56.62
2018-05-10T18:31:51.830Z,56.49
2018-05-10T18:34:20.858Z,57.17
2018-05-10T18:36:49.094Z,57.45
2018-05-10T18:39:18.106Z,57.28
2018-05-10T18:41:46.351Z,57.75
2018-05-10T18:44:15.363Z,57.84
2018-05-10T18:46:44.390Z,57.63
2018-05-10T18:49:12.642Z,58.39
2018-05-10T18:51:40.899Z,58.92
2018-05-10T18:54:09.927Z,59.44
2018-05-10T18:56:38.153Z,59.84
2018-05-10T18:59:06.386Z,59.88
2018-05-10T19:01:34.916Z,60.14
2018-05-10T19:04:03.098Z,60.75
2018-05-10T19:06:32.094Z,62.47
2018-05-10T19:09:01.349Z,65.62
2018-05-10T19:11:29.590Z,66.27
2018-05-10T19:13:57.817Z,67.50
2018-05-10T19:16:26.062Z,68.43
2018-05-10T19:18:54.320Z,69.20
2018-05-10T19:21:22.561Z,70.14
2018-05-10T19:23:50.877Z,70.74
2018-05-10T19:26:19.055Z,71.02
2018-05-10T19:28:47.278Z,71.45
2018-05-10T19:31:15.532Z,71.66
2018-05-10T19:33:43.764Z,71.90
2018-05-10T19:36:12.004Z,72.03
2018-05-10T19:38:40.246Z,71.39
2018-05-10T19:41:08.480Z,69.15
2018-05-10T19:43:37.474Z,68.57
2018-05-10T19:46:05.772Z,68.03
2018-05-10T19:48:34.011Z,68.68
2018-05-10T19:51:03.005Z,69.31
2018-05-10T19:53:32.020Z,69.61
2018-05-10T19:56:00.262Z,69.81
2018-05-10T19:58:28.502Z,69.97
2018-05-10T20:00:56.733Z,69.64
2018-05-10T20:03:25.743Z,69.18
2018-05-10T20:05:53.975Z,69.81
2018-05-10T20:08:22.218Z,68.46
2018-05-10T20:10:50.454Z,69.01
2018-05-10T20:13:18.702Z,68.91
2018-05-10T20:15:46.941Z,68.43
2018-05-10T20:18:15.173Z,68.40
2018-05-10T20:20:44.185Z,68.63
2018-05-10T20:23:12.422Z,69.44
2018-05-10T20:25:40.653Z,69.72
2018-05-10T20:28:09.102Z,69.67
2018-05-10T20:30:38.202Z,71.02
2018-05-10T20:33:06.438Z,71.29
2018-05-10T20:35:34.909Z,71.02
2018-05-10T20:38:03.141Z,70.41
2018-05-10T20:40:31.400Z,70.86
2018-05-10T20:43:00.399Z,71.69
2018-05-10T20:45:29.394Z,70.73
2018-05-10T20:47:57.645Z,71.18
2018-05-10T20:50:25.885Z,70.88
2018-05-10T20:52:54.137Z,70.93
2018-05-10T20:55:22.373Z,70.62
2018-05-10T20:57:50.622Z,70.26
2018-05-10T21:00:18.868Z,70.65
2018-05-10T21:02:47.086Z,70.23
2018-05-10T21:05:15.329Z,70.25
2018-05-10T21:07:43.570Z,70.55
2018-05-10T21:10:11.815Z,70.27
2018-05-10T21:12:43.269Z,70.84
2018-05-10T21:15:11.494Z,70.62
2018-05-10T21:17:39.846Z,71.09
2018-05-10T21:20:08.859Z,71.52
2018-05-10T21:22:37.118Z,70.70
2018-05-10T21:25:05.390Z,70.69
2018-05-10T21:27:34.389Z,70.36
2018-05-10T21:30:02.626Z,70.01
2018-05-10T21:32:30.938Z,70.32
2018-05-10T21:34:59.169Z,70.06
2018-05-10T21:37:27.413Z,70.18
2018-05-10T21:39:55.657Z,68.64
2018-05-10T21:42:24.658Z,68.10
2018-05-10T21:44:53.666Z,67.85
2018-05-10T21:47:21.901Z,67.98
2018-05-10T21:50:09.273Z,68.20
2018-05-10T21:52:37.513Z,68.65
2018-05-10T21:55:06.529Z,68.66
2018-05-10T21:57:35.913Z,68.96
2018-05-10T22:00:05.014Z,69.26
2018-05-10T22:02:34.110Z,69.88
2018-05-10T22:05:03.123Z,69.04
2018-05-10T22:07:31.378Z,69.68
2018-05-10T22:10:00.386Z,69.78
2018-05-10T22:12:28.986Z,68.88
2018-05-10T22:14:57.954Z,69.28
2018-05-10T22:17:26.196Z,69.18
2018-05-10T22:19:54.444Z,69.70
2018-05-10T22:22:22.682Z,68.60
2018-05-10T22:24:51.153Z,69.52
2018-05-10T22:27:20.150Z,69.80
2018-05-10T22:29:48.386Z,69.19
2018-05-10T22:32:16.626Z,70.02
2018-05-10T22:34:44.858Z,70.42
2018-05-10T22:37:13.870Z,70.25
2018-05-10T22:39:42.102Z,70.58
2018-05-10T22:42:10.339Z,70.79
2018-05-10T22:44:38.589Z,70.89
2018-05-10T22:47:07.598Z,71.36
2018-05-10T22:49:35.845Z,71.52
2018-05-10T22:52:04.859Z,71.42
2018-05-10T22:54:33.101Z,71.52
2018-05-10T22:57:01.352Z,72.43
2018-05-10T22:59:29.610Z,72.33
2018-05-10T23:01:57.842Z,72.65
2018-05-10T23:04:26.855Z,73.51
2018-05-10T23:06:55.869Z,73.84
2018-05-10T23:09:24.116Z,73.80
2018-05-10T23:11:53.125Z,74.07
2018-05-10T23:16:55.854Z,74.25
2018-05-10T23:19:24.181Z,74.56
2018-05-10T23:21:53.288Z,74.71
2018-05-10T23:24:22.277Z,74.81
2018-05-10T23:26:50.508Z,74.98
2018-05-10T23:29:18.765Z,75.96
2018-05-10T23:31:46.989Z,76.66
2018-05-10T23:34:16.095Z,76.82
2018-05-10T23:36:45.106Z,76.58
2018-05-10T23:39:13.337Z,77.27
2018-05-10T23:41:41.581Z,77.13
2018-05-10T23:44:09.830Z,77.64
2018-05-10T23:46:38.058Z,77.33
2018-05-10T23:49:06.302Z,77.46
2018-05-10T23:51:34.541Z,77.29
2018-05-10T23:54:03.533Z,77.48
2018-05-10T23:56:31.777Z,77.62
2018-05-10T23:59:00.285Z,77.27
